Time;durP1;ratioP1;P1;durP2;ratioP2;P2;SDS_P1;SDS_P2;PMS_P1;PMS_P2;Temp;Humidity;BMP_temperature;BMP_pressure;BME280_temperature;BME280_humidity;BME280_pressure;Samples;Min_cycle;Max_cycle;Signal;HPM_P1;HPM_P2
2023/04/01 00:01:58;;;;;;;34.60;25.20;;;;;;;8.28;85.55;98072.38;107788;1256;61343;-37
2023/04/01 00:04:26;;;;;;;32.40;23.90;;;;;;;8.21;85.62;98066.70;107666;1255;75071;-37
2023/04/01 00:06:55;;;;;;;31.40;22.70;;;;;;;8.20;85.52;98069.09;107588;1252;68340;-37
2023/04/01 00:09:24;;;;;;;31.10;23.00;;;;;;;8.24;85.39;98066.40;107610;1251;73830;-37
2023/04/01 00:11:57;;;;;;;29.10;23.40;;;;;;;8.23;85.41;98067.86;107592;1256;61590;-37
2023/04/01 00:14:25;;;;;;;33.40;24.80;;;;;;;8.18;85.42;98059.95;107662;1252;61221;-37
2023/04/01 00:16:56;;;;;;;33.50;23.10;;;;;;;8.11;85.46;98056.05;107642;1252;74813;-36
2023/04/01 00:19:25;;;;;;;30.90;21.90;;;;;;;8.09;85.47;98053.65;107740;1256;69193;-36
2023/04/01 00:21:54;;;;;;;26.70;21.80;;;;;;;8.11;85.30;98057.76;107651;1252;73863;-36
2023/04/01 00:24:22;;;;;;;29.60;23.40;;;;;;;8.09;85.40;98057.81;107608;1257;61439;-37
2023/04/01 00:26:51;;;;;;;23.70;17.70;;;;;;;8.04;85.44;98060.55;107610;1253;60427;-36
2023/04/01 00:29:29;;;;;;;29.60;22.60;;;;;;;8.00;85.56;98061.52;107652;1251;73925;-37
2023/04/01 00:31:57;;;;;;;;;;;;;;;8.02;85.43;98058.23;107720;1256;68523;-37
2023/04/01 00:34:26;;;;;;;28.70;21.40;;;;;;;8.01;85.28;98058.29;107742;1257;72331;-37
2023/04/01 00:36:55;;;;;;;29.30;23.40;;;;;;;7.98;85.56;98057.57;107734;1252;60425;-37
2023/04/01 00:39:24;;;;;;;31.60;24.70;;;;;;;8.00;85.35;98054.89;107728;1256;60312;-37
2023/04/01 00:41:53;;;;;;;33.20;24.00;;;;;;;7.97;85.14;98056.48;107663;1252;74826;-37
2023/04/01 00:44:32;;;;;;;31.10;22.50;;;;;;;7.96;85.09;98050.47;107702;1251;69109;-37
2023/04/01 00:47:01;;;;;;;31.40;22.50;;;;;;;7.97;84.85;98048.77;107692;1254;72455;-37
2023/04/01 00:49:42;;;;;;;32.70;25.10;;;;;;;7.95;85.07;98053.91;107630;1257;60526;-38
2023/04/01 00:52:12;;;;;;;34.20;23.20;;;;;;;7.90;85.25;98051.57;107639;1255;61550;-37
2023/04/01 00:54:42;;;;;;;30.80;22.00;;;;;;;7.84;85.49;98052.83;107630;1257;75013;-37
2023/04/01 00:57:16;;;;;;;31.60;22.00;;;;;;;7.85;85.50;98050.84;107551;1254;69081;-37
2023/04/01 00:59:47;;;;;;;28.40;22.90;;;;;;;7.87;85.49;98048.16;107646;1257;74528;-37
2023/04/01 01:02:15;;;;;;;;;;;;;;;7.84;85.36;98045.20;107577;1256;62566;-37
2023/04/01 01:04:45;;;;;;;30.80;22.50;;;;;;;7.73;85.50;98045.34;107614;1257;60267;-37
2023/04/01 01:07:43;;;;;;;33.10;20.40;;;;;;;7.68;85.84;98049.30;107543;1254;74840;-37
2023/04/01 01:10:26;;;;;;;28.30;22.20;;;;;;;7.73;85.58;98049.51;107410;1256;68948;-37
2023/04/01 01:13:01;;;;;;;32.30;22.90;;;;;;;7.69;85.66;98054.70;107532;1254;73853;-37
2023/04/01 01:15:58;;;;;;;31.40;23.50;;;;;;;7.65;85.63;98059.90;107379;1254;61552;-37
2023/04/01 01:18:39;;;;;;;26.70;21.30;;;;;;;7.58;85.87;98062.61;107549;1257;61186;-37
2023/04/01 01:21:07;;;;;;;29.80;22.20;;;;;;;7.59;85.99;98061.00;107542;1252;74863;-37
2023/04/01 01:24:06;;;;;;;33.60;22.80;;;;;;;7.61;85.83;98058.41;107544;1256;67957;-37
2023/04/01 01:26:39;;;;;;;31.20;22.50;;;;;;;7.56;86.00;98058.27;107560;1255;73883;-37
2023/04/01 01:29:29;;;;;;;30.70;23.00;;;;;;;7.52;86.37;98063.84;107605;1257;61561;-38
2023/04/01 01:31:57;;;;;;;30.60;22.20;;;;;;;7.51;86.48;98066.32;107555;1257;60328;-36
2023/04/01 01:34:34;;;;;;;28.80;21.00;;;;;;;7.56;86.21;98065.76;107604;1253;74362;-36
2023/04/01 01:37:14;;;;;;;30.30;22.50;;;;;;;7.59;86.11;98066.63;107691;1256;68190;-36
2023/04/01 01:39:46;;;;;;;30.70;22.50;;;;;;;7.56;86.28;98070.44;107631;1254;73825;-37
2023/04/01 01:42:16;;;;;;;32.60;21.50;;;;;;;7.53;86.34;98074.97;107605;1257;62106;-37
2023/04/01 01:44:47;;;;;;;25.20;20.10;;;;;;;7.55;86.23;98071.83;107626;1256;61483;-37
2023/04/01 01:47:15;;;;;;;33.00;22.30;;;;;;;7.59;86.16;98071.48;107526;1251;73567;-37
2023/04/01 01:49:44;;;;;;;31.40;23.00;;;;;;;7.60;86.24;98068.02;107691;1251;68837;-37
2023/04/01 01:52:13;;;;;;;34.40;24.40;;;;;;;7.59;86.30;98064.78;107700;1251;72539;-37
2023/04/01 01:54:52;;;;;;;30.70;23.30;;;;;;;7.55;86.25;98070.29;107652;1254;62946;-37
2023/04/01 01:57:26;;;;;;;;;;;;;;;7.60;86.11;98070.87;107579;1252;61136;-37
2023/04/01 02:00:13;;;;;;;30.30;22.90;;;;;;;7.60;86.14;98072.48;107583;1251;74625;-37
2023/04/01 02:02:46;;;;;;;30.40;22.50;;;;;;;7.58;86.27;98073.55;107686;1256;69159;-37
2023/04/01 02:05:16;;;;;;;32.10;24.20;;;;;;;7.59;86.31;98080.65;107537;1257;73920;-37
2023/04/01 02:07:49;;;;;;;32.90;23.50;;;;;;;7.54;86.29;98083.30;107611;1251;63250;-37
2023/04/01 02:10:18;;;;;;;29.00;22.50;;;;;;;7.55;86.35;98085.85;107661;1251;60220;-37
2023/04/01 02:12:51;;;;;;;26.40;21.00;;;;;;;7.55;86.11;98085.55;107667;1252;73813;-37
2023/04/01 02:15:21;;;;;;;29.00;23.50;;;;;;;7.51;86.19;98087.19;107740;1256;69115;-37
2023/04/01 02:17:51;;;;;;;29.00;21.40;;;;;;;7.47;86.23;98088.23;107567;1251;73703;-37
2023/04/01 02:20:21;;;;;;;29.30;21.50;;;;;;;7.48;86.27;98086.54;107760;1256;61969;-37
2023/04/01 02:22:55;;;;;;;30.70;23.30;;;;;;;7.51;86.09;98084.11;107682;1251;61183;-37
2023/04/01 02:25:28;;;;;;;32.20;23.40;;;;;;;7.50;86.19;98086.95;107668;1257;75056;-37
2023/04/01 02:27:57;;;;;;;33.00;24.20;;;;;;;7.47;86.40;98084.91;107748;1251;67996;-38
2023/04/01 02:30:27;;;;;;;28.40;21.80;;;;;;;7.42;86.56;98082.33;107702;1251;73072;-36
2023/04/01 02:32:57;;;;;;;29.30;21.50;;;;;;;7.46;86.41;98083.23;107663;1251;61193;-36
2023/04/01 02:35:26;;;;;;;28.70;22.80;;;;;;;7.52;86.26;98080.59;107584;1252;61523;-36
2023/04/01 02:37:54;;;;;;;31.90;23.40;;;;;;;7.52;86.28;98078.42;107589;1257;74955;-36
2023/04/01 02:40:23;;;;;;;33.20;22.30;;;;;;;7.50;86.50;98079.49;107536;1251;68931;-37
2023/04/01 02:42:51;;;;;;;28.60;20.90;;;;;;;7.46;86.52;98077.20;107633;1256;73884;-36
2023/04/01 02:45:21;;;;;;;21.00;17.20;;;;;;;7.49;86.28;98078.23;107678;1257;61583;-37
2023/04/01 02:47:49;;;;;;;32.40;24.30;;;;;;;7.49;86.37;98075.46;107584;1252;61463;-37
2023/04/01 02:50:18;;;;;;;29.90;23.10;;;;;;;7.46;86.49;98077.96;107595;1256;75492;-36
2023/04/01 02:52:48;;;;;;;28.50;21.20;;;;;;;7.38;86.56;98071.73;107630;1257;69075;-36
2023/04/01 02:55:17;;;;;;;26.00;20.30;;;;;;;7.37;86.75;98065.58;107560;1251;73983;-36
2023/04/01 02:57:51;;;;;;;25.60;20.00;;;;;;;7.42;86.60;98063.30;107570;1251;61281;-36
2023/04/01 03:00:20;;;;;;;30.60;22.40;;;;;;;7.43;86.87;98064.08;107613;1251;61565;-36
2023/04/01 03:02:49;;;;;;;29.50;22.30;;;;;;;7.43;87.01;98061.23;107763;1251;75000;-36
2023/04/01 03:05:18;;;;;;;31.60;21.00;;;;;;;7.42;87.07;98064.69;107766;1255;67776;-36
2023/04/01 03:07:48;;;;;;;23.90;19.00;;;;;;;7.46;86.93;98062.89;107672;1251;74059;-37
2023/04/01 03:10:17;;;;;;;27.40;21.20;;;;;;;7.53;86.69;98061.33;107717;1251;61219;-37
2023/04/01 03:12:45;;;;;;;25.90;20.60;;;;;;;7.52;86.77;98060.92;107754;1256;61515;-36
2023/04/01 03:15:15;;;;;;;30.50;21.90;;;;;;;7.50;86.85;98062.15;107650;1251;75024;-36
2023/04/01 03:17:44;;;;;;;24.40;18.60;;;;;;;7.48;86.86;98064.91;107726;1257;68157;-36
2023/04/01 03:20:13;;;;;;;27.10;20.20;;;;;;;7.53;86.75;98065.73;107695;1251;72700;-36
2023/04/01 03:22:41;;;;;;;26.60;20.70;;;;;;;7.59;86.58;98067.47;107629;1252;61600;-37
2023/04/01 03:25:10;;;;;;;24.90;21.30;;;;;;;7.60;86.60;98073.34;107760;1251;61304;-37
2023/04/01 03:27:40;;;;;;;29.30;21.30;;;;;;;7.58;86.65;98074.95;107657;1251;74679;-37
2023/04/01 03:30:09;;;;;;;27.80;19.70;;;;;;;7.56;86.82;98075.60;107658;1251;68596;-36
2023/04/01 03:32:43;;;;;;;24.10;19.10;;;;;;;7.61;86.71;98076.52;107593;1257;73917;-36
2023/04/01 03:35:12;;;;;;;27.80;21.70;;;;;;;7.67;86.49;98079.20;107628;1251;61203;-36
2023/04/01 03:37:40;;;;;;;27.60;21.60;;;;;;;7.67;86.45;98077.95;107665;1251;61181;-36
2023/04/01 03:40:10;;;;;;;27.70;20.10;;;;;;;7.64;86.52;98079.39;107670;1256;75084;-36
2023/04/01 03:42:39;;;;;;;25.60;19.30;;;;;;;7.64;86.35;98081.70;107699;1251;68910;-37
2023/04/01 03:45:11;;;;;;;29.10;20.80;;;;;;;7.70;86.26;98087.39;107705;1251;73099;-37
2023/04/01 03:47:41;;;;;;;26.80;20.10;;;;;;;7.68;86.32;98089.54;107662;1251;61680;-37
2023/04/01 03:50:10;;;;;;;27.30;20.20;;;;;;;7.63;86.43;98092.58;107664;1252;61278;-37
2023/04/01 03:52:40;;;;;;;24.70;18.50;;;;;;;7.57;86.70;98095.73;107557;1257;74534;-37
2023/04/01 03:55:09;;;;;;;26.50;19.50;;;;;;;7.58;86.62;98098.83;107695;1256;69010;-37
2023/04/01 03:57:42;;;;;;;27.60;21.10;;;;;;;7.64;86.64;98100.58;107659;1251;72817;-37
2023/04/01 04:00:16;;;;;;;28.10;20.70;;;;;;;7.64;86.78;98103.74;107661;1252;61491;-37
2023/04/01 04:02:50;;;;;;;26.70;20.40;;;;;;;7.62;86.93;98107.89;107671;1257;60357;-37
2023/04/01 04:05:23;;;;;;;25.90;17.80;;;;;;;7.63;86.85;98110.36;107701;1251;74894;-37
2023/04/01 04:07:53;;;;;;;26.10;18.60;;;;;;;7.66;86.60;98105.22;107683;1251;68013;-37
2023/04/01 04:10:23;;;;;;;23.80;17.40;;;;;;;7.64;86.42;98100.44;107681;1251;73598;-37
2023/04/01 04:12:53;;;;;;;23.80;18.00;;;;;;;7.59;86.43;98103.09;107644;1251;61833;-37
2023/04/01 04:15:23;;;;;;;21.60;16.80;;;;;;;7.51;86.57;98103.30;107634;1251;61297;-38
2023/04/01 04:17:52;;;;;;;22.30;16.60;;;;;;;7.52;86.66;98104.70;107639;1251;74188;-38
2023/04/01 04:20:22;;;;;;;;;;;;;;;7.56;86.53;98102.05;107585;1251;69165;-38
2023/04/01 04:22:50;;;;;;;22.20;17.20;;;;;;;7.51;86.67;98100.45;107694;1251;73747;-36
2023/04/01 04:25:19;;;;;;;23.40;17.70;;;;;;;7.46;87.05;98095.08;107682;1257;61243;-36
2023/04/01 04:27:49;;;;;;;17.00;12.80;;;;;;;7.48;87.28;98093.70;107690;1251;61341;-37
2023/04/01 04:30:17;;;;;;;19.70;15.90;;;;;;;7.58;87.02;98092.58;107698;1251;73821;-37
2023/04/01 04:32:46;;;;;;;20.10;16.70;;;;;;;7.65;86.95;98093.73;107684;1257;67754;-37
2023/04/01 04:35:16;;;;;;;22.90;16.70;;;;;;;7.71;86.84;98095.11;107749;1251;73595;-37
2023/04/01 04:37:46;;;;;;;23.10;17.00;;;;;;;7.75;86.87;98098.30;107707;1252;61540;-37
2023/04/01 04:40:16;;;;;;;20.70;16.20;;;;;;;7.85;86.50;98094.39;107767;1251;60292;-37
2023/04/01 04:42:44;;;;;;;22.50;17.30;;;;;;;7.97;85.96;98096.58;107694;1251;73844;-37
2023/04/01 04:45:15;;;;;;;20.80;17.10;;;;;;;7.98;85.49;98096.67;107620;1251;69071;-37
2023/04/01 04:47:50;;;;;;;25.70;18.30;;;;;;;7.96;85.30;98091.86;107648;1251;73788;-37
2023/04/01 04:50:23;;;;;;;20.60;15.80;;;;;;;7.95;85.33;98089.93;107684;1251;63178;-37
2023/04/01 04:52:52;;;;;;;20.90;14.90;;;;;;;8.01;85.14;98086.52;107719;1251;60440;-37
2023/04/01 04:55:21;;;;;;;19.70;14.80;;;;;;;8.08;84.79;98086.41;107574;1260;73542;-37
2023/04/01 04:57:54;;;;;;;20.80;16.20;;;;;;;8.10;84.57;98087.98;107744;1251;68827;-37
2023/04/01 05:00:23;;;;;;;22.50;16.90;;;;;;;8.09;84.61;98082.80;107711;1251;74036;-37
2023/04/01 05:03:03;;;;;;;21.30;15.80;;;;;;;8.13;84.36;98090.16;107705;1251;62253;-37
2023/04/01 05:05:33;;;;;;;23.90;16.90;;;;;;;8.18;84.16;98088.34;107710;1251;61211;-37
2023/04/01 05:08:02;;;;;;;22.50;17.00;;;;;;;8.21;84.32;98097.23;107685;1251;74084;-37
2023/04/01 05:10:31;;;;;;;23.20;18.00;;;;;;;8.21;84.20;98097.94;107574;1251;67617;-37
2023/04/01 05:13:00;;;;;;;20.40;15.60;;;;;;;8.19;84.04;98097.30;107693;1251;73802;-37
2023/04/01 05:15:37;;;;;;;21.70;16.00;;;;;;;8.22;83.87;98097.63;107647;1251;63159;-37
2023/04/01 05:18:06;;;;;;;24.80;15.50;;;;;;;8.28;83.81;98099.70;107695;1251;60434;-37
2023/04/01 05:20:38;;;;;;;22.50;17.50;;;;;;;8.29;83.67;98103.33;107721;1251;74117;-36
2023/04/01 05:23:06;;;;;;;20.10;16.10;;;;;;;8.27;83.70;98104.54;107729;1251;68118;-37
2023/04/01 05:25:37;;;;;;;19.00;14.90;;;;;;;8.26;83.78;98106.55;107662;1251;73897;-36
2023/04/01 05:28:06;;;;;;;18.30;14.30;;;;;;;8.33;83.69;98103.23;107764;1251;62130;-37
2023/04/01 05:30:36;;;;;;;19.90;15.30;;;;;;;8.41;83.32;98102.35;107700;1256;61214;-37
2023/04/01 05:33:19;;;;;;;21.30;16.30;;;;;;;8.43;82.95;98106.38;107712;1251;75143;-38
2023/04/01 05:35:48;;;;;;;19.80;16.50;;;;;;;8.43;83.15;98103.14;107717;1251;67965;-38
2023/04/01 05:38:17;;;;;;;19.50;15.00;;;;;;;8.45;82.87;98109.71;107750;1251;73861;-37
2023/04/01 05:40:45;;;;;;;16.60;13.40;;;;;;;8.52;82.76;98116.25;107709;1251;62977;-37
2023/04/01 05:43:14;;;;;;;18.10;14.40;;;;;;;8.61;82.28;98108.89;107681;1251;60560;-36
2023/04/01 05:45:44;;;;;;;19.80;15.40;;;;;;;8.64;81.77;98106.76;107694;1251;74797;-36
2023/04/01 05:48:15;;;;;;;22.00;16.00;;;;;;;8.61;81.68;98106.20;107703;1251;68461;-36
2023/04/01 05:50:49;;;;;;;19.20;14.10;;;;;;;8.60;81.63;98104.03;107703;1251;73759;-37
2023/04/01 05:53:18;;;;;;;18.80;14.70;;;;;;;8.65;81.69;98104.69;107599;1251;63164;-37
2023/04/01 05:55:46;;;;;;;19.60;15.20;;;;;;;8.74;81.56;98106.04;107594;1251;61519;-37
2023/04/01 05:58:17;;;;;;;21.10;16.10;;;;;;;8.77;81.37;98094.95;107565;1251;74798;-37
2023/04/01 06:00:47;;;;;;;19.90;15.80;;;;;;;8.72;81.27;98097.23;107640;1256;68904;-37
2023/04/01 06:03:33;;;;;;;17.80;13.40;;;;;;;8.67;81.13;98101.98;107648;1251;73868;-37
2023/04/01 06:06:01;;;;;;;17.60;14.00;;;;;;;8.69;81.09;98104.16;107701;1251;63366;-37
2023/04/01 06:08:33;;;;;;;17.60;14.30;;;;;;;8.72;81.12;98102.25;107680;1255;61444;-37
2023/04/01 06:11:04;;;;;;;17.40;14.30;;;;;;;8.68;81.13;98099.30;107697;1251;75055;-37
2023/04/01 06:13:39;;;;;;;20.90;15.40;;;;;;;8.65;81.16;98098.13;107714;1251;67798;-37
2023/04/01 06:16:21;;;;;;;17.90;13.80;;;;;;;8.59;81.26;98098.23;107640;1251;73857;-37
2023/04/01 06:18:50;;;;;;;16.90;13.00;;;;;;;8.61;81.04;98100.55;107777;1251;63566;-37
2023/04/01 06:21:36;;;;;;;15.90;12.60;;;;;;;8.62;80.94;98100.81;107741;1251;60716;-38
2023/04/01 06:24:28;;;;;;;;;;;;;;;8.66;81.35;98094.11;107669;1251;73898;-38
2023/04/01 06:27:33;;;;;;;15.40;12.90;;;;;;;8.65;81.77;98096.27;107693;1251;67959;-38
2023/04/01 06:30:20;;;;;;;14.60;12.10;;;;;;;8.78;81.73;98093.72;107469;1257;73765;-37
2023/04/01 06:33:08;;;;;;;16.40;12.50;;;;;;;8.99;81.33;98092.36;107726;1251;60415;-38
2023/04/01 06:36:05;;;;;;;17.90;14.50;;;;;;;9.10;80.36;98092.40;107728;1251;60279;-37
2023/04/01 06:38:56;;;;;;;18.00;13.70;;;;;;;9.16;80.11;98088.10;107681;1251;74702;-37
2023/04/01 06:41:31;;;;;;;17.00;12.40;;;;;;;9.19;80.32;98072.81;107697;1251;69182;-37
2023/04/01 06:44:10;;;;;;;15.90;12.60;;;;;;;9.44;80.24;98082.31;107663;1251;73938;-38
2023/04/01 06:46:59;;;;;;;16.40;12.70;;;;;;;9.65;79.60;98076.73;107604;1251;61574;-38
2023/04/01 06:49:57;;;;;;;18.00;13.70;;;;;;;9.81;79.09;98074.81;107598;1251;61377;-38
2023/04/01 06:53:02;;;;;;;;;;;;;;;9.95;78.08;98082.34;107535;1256;74885;-38
2023/04/01 06:55:53;;;;;;;17.50;13.00;;;;;;;9.94;77.53;98084.27;107737;1251;68951;-38
2023/04/01 06:58:34;;;;;;;19.10;13.40;;;;;;;10.02;76.84;98084.81;107638;1251;73600;-38
2023/04/01 07:01:05;;;;;;;15.90;12.50;;;;;;;10.08;76.51;98087.60;107661;1251;61227;-38
2023/04/01 07:03:41;;;;;;;17.70;12.40;;;;;;;10.11;76.56;98088.83;107549;1251;60717;-38
2023/04/01 07:06:23;;;;;;;18.50;14.00;;;;;;;10.16;76.66;98090.79;107666;1251;74674;-38
2023/04/01 07:08:54;;;;;;;16.80;13.00;;;;;;;10.22;76.47;98087.10;107668;1251;68972;-38
2023/04/01 07:11:37;;;;;;;16.90;12.50;;;;;;;10.35;76.44;98085.69;107644;1251;73764;-38
2023/04/01 07:14:45;;;;;;;17.30;12.70;;;;;;;10.55;75.42;98087.44;107062;1260;61111;-37
2023/04/01 07:17:21;;;;;;;17.10;13.30;;;;;;;10.59;74.31;98093.09;107569;1251;60392;-37
2023/04/01 07:19:59;;;;;;;20.90;14.20;;;;;;;10.61;74.14;98098.73;107728;1251;74750;-38
2023/04/01 07:22:33;;;;;;;18.30;14.00;;;;;;;10.63;74.18;98107.10;107635;1251;67960;-38
2023/04/01 07:25:15;;;;;;;16.90;12.50;;;;;;;10.69;74.41;98113.14;107619;1251;73506;-38
2023/04/01 07:27:45;;;;;;;19.00;13.30;;;;;;;10.85;74.07;98119.60;107639;1251;61961;-38
2023/04/01 07:30:18;;;;;;;17.50;12.10;;;;;;;10.98;73.56;98126.31;107683;1251;61529;-36
2023/04/01 07:32:56;;;;;;;15.60;11.80;;;;;;;11.03;73.29;98125.98;107695;1251;75027;-36
2023/04/01 07:35:38;;;;;;;17.40;12.50;;;;;;;11.00;72.87;98118.63;107666;1251;69118;-37
2023/04/01 07:38:25;;;;;;;17.70;13.00;;;;;;;11.02;72.45;98125.30;107699;1251;73082;-37
2023/04/01 07:40:55;;;;;;;15.70;11.70;;;;;;;10.98;72.52;98122.45;107692;1254;62841;-37
2023/04/01 07:43:37;;;;;;;13.30;10.00;;;;;;;11.00;72.36;98121.50;107572;1251;61511;-37
2023/04/01 07:47:02;;;;;;;16.70;11.90;;;;;;;11.00;72.30;98125.53;107562;1251;74718;-37
2023/04/01 07:49:44;;;;;;;16.20;12.10;;;;;;;10.95;72.79;98129.73;107604;1251;69384;-37
2023/04/01 07:52:25;;;;;;;16.80;12.10;;;;;;;10.89;73.01;98129.04;107561;1251;73811;-37
2023/04/01 07:55:13;;;;;;;13.80;11.20;;;;;;;10.84;73.14;98138.80;107627;1251;61906;-37
2023/04/01 07:57:59;;;;;;;16.40;12.30;;;;;;;10.87;73.26;98141.67;107747;1251;61324;-38
2023/04/01 08:00:46;;;;;;;17.30;12.80;;;;;;;10.84;73.03;98141.21;107450;1251;340009;-36
2023/04/01 08:04:59;;;;;;;18.40;12.80;;;;;;;10.71;73.53;98141.31;104126;1291;601182;-37
2023/04/01 08:07:31;;;;;;;17.70;12.80;;;;;;;10.63;73.97;98138.00;106711;1269;62334;-37
2023/04/01 08:11:02;;;;;;;15.60;11.70;;;;;;;10.74;73.77;98141.54;106572;1267;61358;-37
2023/04/01 08:14:11;;;;;;;18.50;12.70;;;;;;;10.86;73.87;98143.08;106734;1266;73461;-37
2023/04/01 08:17:05;;;;;;;21.70;14.80;;;;;;;11.03;73.60;98143.04;106737;1268;69198;-37
2023/04/01 08:19:51;;;;;;;18.00;13.20;;;;;;;11.17;73.11;98144.77;106678;1264;72507;-37
2023/04/01 08:22:27;;;;;;;18.60;13.40;;;;;;;11.35;72.58;98144.95;106877;1267;62952;-37
2023/04/01 08:25:02;;;;;;;22.30;15.30;;;;;;;11.48;72.33;98142.73;106850;1269;60435;-37
2023/04/01 08:27:37;;;;;;;22.40;16.00;;;;;;;11.53;71.55;98138.98;106833;1264;72243;-37
2023/04/01 08:30:21;;;;;;;24.60;16.90;;;;;;;11.58;71.48;98141.44;106887;1267;68005;-37
2023/04/01 08:32:58;;;;;;;30.10;18.70;;;;;;;11.75;71.61;98141.45;106847;1264;73578;-36
2023/04/01 08:35:41;;;;;;;28.10;17.90;;;;;;;11.97;70.99;98139.46;106832;1264;62013;-36
2023/04/01 08:38:37;;;;;;;30.30;20.30;;;;;;;12.23;69.40;98138.98;106827;1264;61239;-36
2023/04/01 08:41:27;;;;;;;33.10;19.90;;;;;;;12.32;68.40;98135.10;106853;1263;75965;-37
2023/04/01 08:44:44;;;;;;;35.50;22.20;;;;;;;12.33;68.61;98135.25;107510;1254;69167;-37
2023/04/01 08:47:43;;;;;;;33.70;20.90;;;;;;;12.40;68.66;98127.58;107619;1253;72207;-36
2023/04/01 08:50:31;;;;;;;36.50;21.30;;;;;;;12.54;67.66;98121.64;107629;1253;60178;-38
2023/04/01 08:53:24;;;;;;;32.80;20.00;;;;;;;12.58;66.60;98121.91;107596;1254;61333;-38
2023/04/01 08:56:24;;;;;;;32.20;21.10;;;;;;;12.72;66.89;98114.48;107545;1257;74251;-38
2023/04/01 08:58:58;;;;;;;39.70;24.50;;;;;;;12.83;66.83;98113.90;107636;1254;68443;-38
2023/04/01 09:01:50;;;;;;;38.90;24.60;;;;;;;12.93;67.03;98117.67;107674;1254;73174;-38
2023/04/01 09:04:58;;;;;;;38.00;23.30;;;;;;;13.10;65.91;98121.16;107652;1254;60311;-38
2023/04/01 09:07:51;;;;;;;37.60;23.00;;;;;;;13.13;65.11;98127.52;107663;1254;61265;-38
2023/04/01 09:10:59;;;;;;;36.60;22.90;;;;;;;13.13;65.41;98123.33;107682;1253;74347;-38
2023/04/01 09:14:26;;;;;;;32.80;21.30;;;;;;;13.28;64.72;98129.75;107409;1254;68602;-37
2023/04/01 09:17:29;;;;;;;38.10;23.20;;;;;;;13.64;64.27;98124.88;107489;1253;72995;-37
2023/04/01 09:20:39;;;;;;;41.20;26.20;;;;;;;13.94;63.92;98121.96;107646;1252;60182;-37
2023/04/01 09:23:33;;;;;;;32.20;22.10;;;;;;;14.41;62.30;98119.80;107691;1254;61386;-36
2023/04/01 09:26:39;;;;;;;36.40;22.50;;;;;;;14.74;60.31;98118.54;107725;1252;74184;-36
2023/04/01 09:29:36;;;;;;;37.40;25.30;;;;;;;14.97;59.39;98118.27;107579;1254;69216;-36
2023/04/01 09:32:10;;;;;;;35.00;25.00;;;;;;;15.11;58.27;98126.90;107608;1254;73109;-36
2023/04/01 09:35:23;;;;;;;29.50;22.70;;;;;;;15.11;58.00;98117.62;107663;1257;61460;-36
2023/04/01 09:38:08;;;;;;;34.10;24.40;;;;;;;15.06;57.81;98121.14;107664;1257;60299;-37
2023/04/01 09:40:45;;;;;;;30.70;22.40;;;;;;;14.91;57.79;98122.29;107725;1256;74031;-37
2023/04/01 09:43:27;;;;;;;31.70;23.00;;;;;;;14.75;57.74;98116.09;107728;1254;68913;-37
2023/04/01 09:46:14;;;;;;;28.10;21.70;;;;;;;14.69;58.58;98110.59;107708;1254;73806;-37
2023/04/01 09:48:55;;;;;;;23.70;18.60;;;;;;;14.80;58.87;98113.42;107713;1254;60126;-37
2023/04/01 09:51:36;;;;;;;20.50;15.90;;;;;;;14.93;57.93;98119.11;107657;1252;60519;-37
2023/04/01 09:54:29;;;;;;;19.40;14.60;;;;;;;14.98;57.72;98108.83;107642;1254;74184;-37
2023/04/01 09:57:30;;;;;;;15.90;12.50;;;;;;;15.07;57.39;98109.57;107732;1254;67824;-37
2023/04/01 10:00:39;;;;;;;15.50;12.30;;;;;;;15.21;56.65;98117.95;107287;1253;73574;-37
2023/04/01 10:03:25;;;;;;;16.10;11.80;;;;;;;15.31;56.41;98112.62;107567;1252;59588;-37
2023/04/01 10:06:15;;;;;;;14.20;11.60;;;;;;;15.49;56.36;98110.53;107667;1253;61193;-36
2023/04/01 10:09:16;;;;;;;16.10;11.50;;;;;;;15.69;56.22;98110.69;107575;1254;74016;-37
2023/04/01 10:11:56;;;;;;;13.90;10.60;;;;;;;15.78;55.27;98108.61;107675;1254;69080;-37
2023/04/01 10:14:36;;;;;;;14.80;11.50;;;;;;;15.74;54.97;98103.77;107717;1253;74141;-37
2023/04/01 10:17:22;;;;;;;14.40;11.10;;;;;;;15.72;55.48;98104.85;107691;1254;61434;-38
2023/04/01 10:20:19;;;;;;;12.50;10.40;;;;;;;15.71;54.61;98099.79;107498;1254;61211;-38
2023/04/01 10:23:37;;;;;;;13.90;10.50;;;;;;;15.59;54.66;98092.64;107662;1253;74098;-38
2023/04/01 10:26:13;;;;;;;13.10;10.30;;;;;;;15.42;55.28;98091.70;107557;1252;70361;-37
2023/04/01 10:29:02;;;;;;;14.00;10.60;;;;;;;15.35;55.81;98084.14;107583;1254;73584;-37
2023/04/01 10:31:53;;;;;;;13.40;9.90;;;;;;;15.31;55.95;98085.55;107714;1253;61636;-37
2023/04/01 10:34:28;;;;;;;13.70;10.30;;;;;;;15.26;55.72;98081.67;107692;1254;60280;-37
2023/04/01 10:36:59;;;;;;;14.40;10.80;;;;;;;15.17;55.97;98082.62;107652;1252;74254;-37
2023/04/01 10:39:37;;;;;;;14.20;11.00;;;;;;;15.09;56.39;98077.81;107693;1254;67039;-37
2023/04/01 10:42:37;;;;;;;13.10;11.00;;;;;;;14.97;56.59;98083.50;107579;1253;73621;-38
2023/04/01 10:45:35;;;;;;;12.50;10.30;;;;;;;14.81;56.38;98074.21;107422;1254;61171;-38
2023/04/01 10:48:33;;;;;;;11.90;9.70;;;;;;;14.70;56.77;98069.11;107578;1254;61268;-38
2023/04/01 10:51:34;;;;;;;14.70;11.30;;;;;;;14.69;57.13;98064.45;107293;1256;74352;-39
2023/04/01 10:54:25;;;;;;;15.40;12.10;;;;;;;14.72;57.82;98065.41;107565;1254;69123;-37
2023/04/01 10:57:30;;;;;;;13.80;10.40;;;;;;;14.78;57.59;98067.71;107555;1254;73255;-38
2023/04/01 11:00:29;;;;;;;12.70;10.30;;;;;;;14.79;57.22;98062.23;107582;1254;61581;-37
2023/04/01 11:03:28;;;;;;;11.00;9.30;;;;;;;14.79;56.79;98067.92;107559;1253;60869;-38
2023/04/01 11:07:10;;;;;;;13.40;9.90;;;;;;;14.87;56.67;98066.39;107660;1252;74469;-37
2023/04/01 11:10:17;;;;;;;12.90;10.20;;;;;;;15.05;56.69;98061.10;106927;1261;68862;-37
2023/04/01 11:13:12;;;;;;;11.70;10.00;;;;;;;15.14;56.52;98061.08;107663;1254;73870;-37
2023/04/01 11:15:44;;;;;;;13.20;10.00;;;;;;;15.16;56.38;98066.42;107607;1254;60405;-37
2023/04/01 11:18:50;;;;;;;13.30;10.40;;;;;;;15.17;55.93;98066.87;107652;1253;59513;-37
2023/04/01 11:21:58;;;;;;;13.70;10.40;;;;;;;15.09;56.12;98064.14;107575;1254;72153;-37
2023/04/01 11:25:25;;;;;;;15.30;10.60;;;;;;;14.96;56.89;98065.50;107678;1254;68303;-37
2023/04/01 11:28:17;;;;;;;13.00;10.00;;;;;;;14.81;56.92;98060.88;107304;1253;73783;-38
2023/04/01 11:31:04;;;;;;;15.50;10.30;;;;;;;14.73;57.59;98053.85;107689;1254;61528;-37
2023/04/01 11:34:08;;;;;;;12.40;10.00;;;;;;;14.75;57.89;98048.19;107653;1252;60436;-37
2023/04/01 11:37:22;;;;;;;13.10;10.00;;;;;;;14.84;58.05;98042.52;107630;1253;74203;-38
2023/04/01 11:40:48;;;;;;;14.20;10.50;;;;;;;14.92;57.92;98042.57;107056;1260;68982;-37
2023/04/01 11:43:44;;;;;;;14.70;10.60;;;;;;;14.97;57.52;98043.80;107028;1260;73856;-38
2023/04/01 11:46:38;;;;;;;13.00;10.10;;;;;;;14.98;57.60;98036.06;107550;1254;61403;-36
2023/04/01 11:49:25;;;;;;;14.30;9.70;;;;;;;15.00;58.12;98031.41;107624;1253;59963;-37
2023/04/01 11:52:26;;;;;;;11.90;9.10;;;;;;;15.08;57.78;98030.31;107678;1254;72945;-37
2023/04/01 11:54:57;;;;;;;11.60;9.20;;;;;;;15.13;57.49;98023.59;107691;1256;69128;-37
2023/04/01 11:57:43;;;;;;;13.40;9.20;;;;;;;15.13;57.63;98027.50;107621;1254;73871;-37
2023/04/01 12:00:18;;;;;;;12.70;9.50;;;;;;;15.12;57.75;98023.84;107541;1254;61556;-37
2023/04/01 12:02:57;;;;;;;10.60;8.10;;;;;;;15.10;57.58;98016.23;107580;1253;61200;-37
2023/04/01 12:06:03;;;;;;;9.20;6.30;;;;;;;15.13;56.98;98015.47;107724;1255;72765;-37
2023/04/01 12:08:54;;;;;;;9.20;5.20;;;;;;;15.27;54.61;98016.04;107675;1254;67724;-37
2023/04/01 12:11:48;;;;;;;8.30;5.70;;;;;;;15.41;53.40;98022.61;107568;1253;73574;-37
2023/04/01 12:14:38;;;;;;;8.50;5.80;;;;;;;15.48;52.73;98008.73;107650;1254;60652;-37
2023/04/01 12:17:15;;;;;;;7.60;5.50;;;;;;;15.67;53.25;98014.02;107703;1253;61498;-37
2023/04/01 12:20:15;;;;;;;8.30;5.70;;;;;;;15.82;53.10;98015.59;107674;1254;72125;-37